createdAt,value
2017-07-06T00:00:12.683Z,1015.99
2017-07-06T00:00:53.602Z,1015.98
2017-07-06T00:01:34.547Z,1015.96
2017-07-06T00:02:15.445Z,1015.98
2017-07-06T00:02:56.369Z,1015.97
2017-07-06T00:04:34.809Z,1015.99
2017-07-06T00:05:15.691Z,1015.97
2017-07-06T00:06:48.923Z,1015.97
2017-07-06T00:07:29.845Z,1015.98
2017-07-06T00:08:10.717Z,1015.98
2017-07-06T00:08:51.625Z,1015.96
2017-07-06T00:09:32.539Z,1015.98
2017-07-06T00:10:13.411Z,1015.98
2017-07-06T00:11:47.648Z,1015.98
2017-07-06T00:12:28.581Z,1015.98
2017-07-06T00:13:09.506Z,1016
2017-07-06T00:13:50.434Z,1016
2017-07-06T00:14:31.398Z,1015.99
2017-07-06T00:15:12.341Z,1015.99
2017-07-06T00:15:53.270Z,1016.01
2017-07-06T00:16:34.212Z,1016.01
2017-07-06T00:17:15.144Z,1015.96
2017-07-06T00:17:56.140Z,1015.98
2017-07-06T00:18:37.027Z,1015.97
2017-07-06T00:19:17.960Z,1016.01
2017-07-06T00:19:58.835Z,1016
2017-07-06T00:20:39.741Z,1015.97
2017-07-06T00:21:20.619Z,1015.99
2017-07-06T00:22:01.548Z,1016.02
2017-07-06T00:22:42.465Z,1016
2017-07-06T00:23:23.346Z,1015.99
2017-07-06T00:25:22.198Z,1015.97
2017-07-06T00:26:03.209Z,1015.97
2017-07-06T00:26:44.090Z,1016
2017-07-06T00:27:25.007Z,1015.95
2017-07-06T00:28:05.892Z,1015.97
2017-07-06T00:28:46.871Z,1015.95
2017-07-06T00:29:27.790Z,1015.95
2017-07-06T00:30:08.758Z,1015.99
2017-07-06T00:30:49.692Z,1016.01
2017-07-06T00:31:30.634Z,1015.97
2017-07-06T00:32:11.607Z,1015.95
2017-07-06T00:32:52.511Z,1015.91
2017-07-06T00:33:33.429Z,1015.96
2017-07-06T00:34:14.347Z,1015.92
2017-07-06T00:34:55.286Z,1015.94
2017-07-06T00:35:36.219Z,1015.94
2017-07-06T00:36:17.151Z,1015.96
2017-07-06T00:36:58.039Z,1015.95
2017-07-06T00:37:38.990Z,1015.95
2017-07-06T00:38:19.947Z,1015.95
2017-07-06T00:39:00.857Z,1015.96
2017-07-06T00:39:41.758Z,1015.95
2017-07-06T00:40:22.669Z,1015.93
2017-07-06T00:41:03.577Z,1015.93
2017-07-06T00:41:44.520Z,1015.92
2017-07-06T00:42:25.429Z,1015.92
2017-07-06T00:43:06.360Z,1015.93
2017-07-06T00:43:47.367Z,1015.96
2017-07-06T00:44:28.262Z,1015.98
2017-07-06T00:45:09.172Z,1015.97
2017-07-06T00:45:50.152Z,1015.96
2017-07-06T00:46:31.075Z,1015.98
2017-07-06T00:47:11.952Z,1015.97
2017-07-06T00:47:52.842Z,1015.98
2017-07-06T00:48:33.726Z,1015.98
2017-07-06T00:49:14.616Z,1015.99
2017-07-06T00:49:55.505Z,1015.96
2017-07-06T00:50:36.394Z,1015.95
2017-07-06T00:51:17.288Z,1015.97
2017-07-06T00:51:58.181Z,1015.94
2017-07-06T00:52:39.075Z,1015.95
2017-07-06T00:53:19.978Z,1015.93
2017-07-06T00:54:00.859Z,1015.92
2017-07-06T00:54:41.748Z,1015.94
2017-07-06T00:55:22.637Z,1015.93
2017-07-06T00:56:03.525Z,1015.97
2017-07-06T00:56:44.413Z,1015.97
2017-07-06T00:57:25.283Z,1016.04
2017-07-06T00:58:06.183Z,1015.99
2017-07-06T00:58:47.071Z,1016.01
2017-07-06T00:59:27.961Z,1016
2017-07-06T01:00:08.867Z,1016.01
2017-07-06T01:00:49.765Z,1015.99
2017-07-06T01:01:30.655Z,1015.99
2017-07-06T01:02:11.544Z,1016.03
2017-07-06T01:02:52.441Z,1016
2017-07-06T01:03:33.328Z,1016.02
2017-07-06T01:04:14.209Z,1016
2017-07-06T01:04:55.099Z,1015.96
2017-07-06T01:05:35.983Z,1016.02
2017-07-06T01:06:16.870Z,1015.98
2017-07-06T01:06:57.763Z,1015.98
2017-07-06T01:07:38.645Z,1015.93
2017-07-06T01:08:19.544Z,1015.93
2017-07-06T01:09:00.442Z,1015.93
2017-07-06T01:09:41.337Z,1015.92
2017-07-06T01:10:22.267Z,1015.89
2017-07-06T01:11:03.126Z,1015.87
2017-07-06T01:11:44.018Z,1015.83
2017-07-06T01:12:24.911Z,1015.81
2017-07-06T01:13:05.796Z,1015.82
2017-07-06T01:13:46.688Z,1015.82
2017-07-06T01:14:27.576Z,1015.82
2017-07-06T01:15:08.470Z,1015.85
2017-07-06T01:15:49.365Z,1015.86
2017-07-06T01:16:30.248Z,1015.88
2017-07-06T01:17:11.138Z,1015.91
2017-07-06T01:17:52.029Z,1015.92
2017-07-06T01:18:32.929Z,1015.89
2017-07-06T01:19:13.815Z,1015.88
2017-07-06T01:19:54.703Z,1015.87
2017-07-06T01:20:35.594Z,1015.84
2017-07-06T01:21:16.492Z,1015.83
2017-07-06T01:21:57.380Z,1015.82
2017-07-06T01:22:38.279Z,1015.85
2017-07-06T01:23:19.170Z,1015.83
2017-07-06T01:24:00.064Z,1015.84
2017-07-06T01:24:40.955Z,1015.84
2017-07-06T01:25:21.854Z,1015.85
2017-07-06T01:26:02.744Z,1015.82
2017-07-06T01:26:43.642Z,1015.83
2017-07-06T01:27:24.531Z,1015.82
2017-07-06T01:28:05.418Z,1015.86
2017-07-06T01:28:46.319Z,1015.83
2017-07-06T01:29:27.206Z,1015.83
2017-07-06T01:30:08.104Z,1015.89
2017-07-06T01:30:48.995Z,1015.87
2017-07-06T01:31:29.891Z,1015.9
2017-07-06T01:32:10.774Z,1015.9
2017-07-06T01:32:51.662Z,1015.92
2017-07-06T01:33:32.562Z,1015.92
2017-07-06T01:34:13.449Z,1015.91
2017-07-06T01:34:54.328Z,1015.93
2017-07-06T01:35:35.221Z,1015.94
2017-07-06T01:36:16.106Z,1015.91
2017-07-06T01:36:56.990Z,1015.92
2017-07-06T01:37:37.883Z,1015.93
2017-07-06T01:38:18.776Z,1015.91
2017-07-06T01:38:59.670Z,1015.92
2017-07-06T01:39:40.572Z,1015.89
2017-07-06T01:40:21.455Z,1015.91
2017-07-06T01:41:02.356Z,1015.92
2017-07-06T01:41:43.231Z,1015.91
2017-07-06T01:42:24.123Z,1015.89
2017-07-06T01:43:05.002Z,1015.94
2017-07-06T01:43:45.891Z,1015.91
2017-07-06T01:44:26.784Z,1015.93
2017-07-06T01:45:07.682Z,1015.94
2017-07-06T01:45:48.573Z,1015.92
2017-07-06T01:46:29.458Z,1015.92
2017-07-06T01:47:10.372Z,1015.92
2017-07-06T01:47:51.265Z,1015.95
2017-07-06T01:48:32.157Z,1015.95
2017-07-06T01:49:13.047Z,1015.94
2017-07-06T01:49:53.943Z,1015.93
2017-07-06T01:50:34.831Z,1015.91
2017-07-06T01:51:15.725Z,1015.92
2017-07-06T01:51:56.626Z,1015.91
2017-07-06T01:52:37.532Z,1015.94
2017-07-06T01:53:18.448Z,1015.98
2017-07-06T01:53:59.338Z,1015.93
2017-07-06T01:54:40.246Z,1015.95
2017-07-06T01:55:21.141Z,1015.92
2017-07-06T01:56:02.028Z,1015.93
2017-07-06T01:56:42.914Z,1015.96
2017-07-06T01:57:23.799Z,1015.95
2017-07-06T01:58:04.666Z,1015.96
2017-07-06T01:58:45.548Z,1015.96
2017-07-06T01:59:26.433Z,1016
2017-07-06T02:00:07.323Z,1015.98
2017-07-06T02:00:48.207Z,1016.01
2017-07-06T02:01:29.099Z,1016
2017-07-06T02:02:09.993Z,1016.01
2017-07-06T02:02:50.863Z,1016.04
2017-07-06T02:03:31.761Z,1016.02
2017-07-06T02:04:12.651Z,1016.01
2017-07-06T02:04:53.539Z,1016
2017-07-06T02:05:34.420Z,1016.06
2017-07-06T02:06:15.310Z,1016.04
2017-07-06T02:06:56.191Z,1016.04
2017-07-06T02:07:37.079Z,1016.04
2017-07-06T02:08:17.972Z,1016.02
2017-07-06T02:08:58.878Z,1016.01
2017-07-06T02:09:39.775Z,1016.06
2017-07-06T02:10:20.672Z,1016.06
2017-07-06T02:11:01.563Z,1016.04
2017-07-06T02:11:42.482Z,1016.05
2017-07-06T02:12:23.373Z,1016.05
2017-07-06T02:13:04.257Z,1016.09
2017-07-06T02:13:45.152Z,1016.04
2017-07-06T02:14:26.042Z,1016.09
2017-07-06T02:15:06.926Z,1016.11
2017-07-06T02:15:47.819Z,1016.11
2017-07-06T02:16:28.742Z,1016.08
2017-07-06T02:17:09.601Z,1016.06
2017-07-06T02:17:50.477Z,1016.08
2017-07-06T02:18:31.367Z,1016.1
2017-07-06T02:19:12.249Z,1016.08
2017-07-06T02:19:53.134Z,1016.07
2017-07-06T02:20:34.011Z,1016.12
2017-07-06T02:21:14.915Z,1016.1
2017-07-06T02:21:55.801Z,1016.11
2017-07-06T02:22:36.672Z,1016.1
2017-07-06T02:23:17.558Z,1016.11
2017-07-06T02:23:58.456Z,1016.15
2017-07-06T02:24:39.343Z,1016.14
2017-07-06T02:25:20.250Z,1016.17
2017-07-06T02:26:01.141Z,1016.15
2017-07-06T02:26:42.022Z,1016.21
2017-07-06T02:27:22.913Z,1016.19
2017-07-06T02:28:03.805Z,1016.17
2017-07-06T02:28:44.691Z,1016.2
2017-07-06T02:29:25.601Z,1016.17
2017-07-06T02:30:06.502Z,1016.2
2017-07-06T02:30:47.389Z,1016.19
2017-07-06T02:31:28.321Z,1016.2
2017-07-06T02:32:09.208Z,1016.2
2017-07-06T02:32:50.112Z,1016.19
2017-07-06T02:33:31.004Z,1016.2
2017-07-06T02:34:11.899Z,1016.19
2017-07-06T02:34:52.770Z,1016.17
2017-07-06T02:35:33.666Z,1016.19
2017-07-06T02:36:14.551Z,1016.19
2017-07-06T02:36:55.437Z,1016.23
2017-07-06T02:37:36.346Z,1016.18
2017-07-06T02:38:17.226Z,1016.19
2017-07-06T02:38:58.128Z,1016.14
2017-07-06T02:39:39.022Z,1016.17
2017-07-06T02:40:19.903Z,1016.19
2017-07-06T02:41:00.793Z,1016.18
2017-07-06T02:41:41.682Z,1016.19
2017-07-06T02:42:22.564Z,1016.2
2017-07-06T02:43:03.460Z,1016.21
2017-07-06T02:43:44.343Z,1016.19
2017-07-06T02:44:25.235Z,1016.21
2017-07-06T02:45:06.116Z,1016.23
2017-07-06T02:45:47.008Z,1016.21
2017-07-06T02:46:27.908Z,1016.19
2017-07-06T02:47:08.791Z,1016.22
2017-07-06T02:47:49.694Z,1016.2
2017-07-06T02:48:30.591Z,1016.21
2017-07-06T02:49:11.490Z,1016.16
2017-07-06T02:49:52.377Z,1016.23
2017-07-06T02:50:33.268Z,1016.21
2017-07-06T02:51:14.161Z,1016.19
2017-07-06T02:51:55.051Z,1016.21
2017-07-06T02:52:35.942Z,1016.2
2017-07-06T02:53:16.832Z,1016.21
2017-07-06T02:53:57.737Z,1016.18
2017-07-06T02:54:38.616Z,1016.16
2017-07-06T02:55:19.504Z,1016.17
2017-07-06T02:56:00.409Z,1016.15
2017-07-06T02:56:41.296Z,1016.16
2017-07-06T02:57:22.186Z,1016.11
2017-07-06T02:58:03.075Z,1016.13
2017-07-06T02:58:43.978Z,1016.13
2017-07-06T02:59:24.862Z,1016.1
2017-07-06T03:00:05.754Z,1016.13
2017-07-06T03:00:46.637Z,1016.11
2017-07-06T03:01:27.531Z,1016.11
2017-07-06T03:02:08.412Z,1016.09
2017-07-06T03:02:49.309Z,1016.09
2017-07-06T03:03:30.194Z,1016.1
2017-07-06T03:04:11.090Z,1016.08
2017-07-06T03:04:51.962Z,1016.11
2017-07-06T03:05:32.858Z,1016.11
2017-07-06T03:06:13.748Z,1016.16
2017-07-06T03:06:54.646Z,1016.18
2017-07-06T03:07:35.540Z,1016.15
2017-07-06T03:08:16.426Z,1016.16
2017-07-06T03:08:57.316Z,1016.13
2017-07-06T03:09:38.211Z,1016.14
2017-07-06T03:10:19.086Z,1016.16
2017-07-06T03:10:59.979Z,1016.21
2017-07-06T03:11:40.875Z,1016.18
2017-07-06T03:12:21.762Z,1016.2
2017-07-06T03:13:02.652Z,1016.18
2017-07-06T03:13:43.549Z,1016.15
2017-07-06T03:14:24.435Z,1016.2
2017-07-06T03:15:05.333Z,1016.17
2017-07-06T03:15:46.228Z,1016.2
2017-07-06T03:16:27.114Z,1016.19
2017-07-06T03:17:08.017Z,1016.2
2017-07-06T03:17:48.923Z,1016.23
2017-07-06T03:18:29.817Z,1016.22
2017-07-06T03:19:10.718Z,1016.2
2017-07-06T03:21:04.335Z,1016.17
2017-07-06T03:21:45.215Z,1016.18
2017-07-06T03:22:26.111Z,1016.16
2017-07-06T03:23:07.063Z,1016.14
2017-07-06T03:23:47.903Z,1016.15
2017-07-06T03:24:28.841Z,1016.17
2017-07-06T03:25:09.735Z,1016.14
2017-07-06T03:25:50.620Z,1016.13
2017-07-06T03:26:31.514Z,1016.16
2017-07-06T03:27:12.412Z,1016.16
2017-07-06T03:27:53.293Z,1016.14
2017-07-06T03:28:34.184Z,1016.18
2017-07-06T03:29:15.075Z,1016.18
2017-07-06T03:29:55.959Z,1016.21
2017-07-06T03:30:36.848Z,1016.21
2017-07-06T03:31:17.746Z,1016.24
2017-07-06T03:31:58.637Z,1016.22
2017-07-06T03:32:39.526Z,1016.21
2017-07-06T03:33:20.405Z,1016.26
2017-07-06T03:34:01.282Z,1016.26
2017-07-06T03:34:42.176Z,1016.24
2017-07-06T03:35:23.069Z,1016.27
2017-07-06T03:36:03.939Z,1016.26
2017-07-06T03:36:44.830Z,1016.28
2017-07-06T03:37:25.710Z,1016.28
2017-07-06T03:38:06.610Z,1016.29
2017-07-06T03:38:47.551Z,1016.29
2017-07-06T03:39:28.444Z,1016.26
2017-07-06T03:40:09.329Z,1016.3
2017-07-06T03:40:50.218Z,1016.31
2017-07-06T03:41:31.117Z,1016.33
2017-07-06T03:42:12.005Z,1016.34
2017-07-06T03:42:52.871Z,1016.33
2017-07-06T03:43:33.770Z,1016.34
2017-07-06T03:44:14.660Z,1016.36
2017-07-06T03:44:55.551Z,1016.36
2017-07-06T03:45:36.429Z,1016.35
2017-07-06T03:46:17.313Z,1016.33
2017-07-06T03:46:58.198Z,1016.35
2017-07-06T03:47:39.113Z,1016.36
2017-07-06T03:48:20.034Z,1016.34
2017-07-06T03:49:00.905Z,1016.36
2017-07-06T03:49:41.791Z,1016.3
2017-07-06T03:50:22.667Z,1016.34
2017-07-06T03:51:03.557Z,1016.29
2017-07-06T03:51:44.424Z,1016.3
2017-07-06T03:52:25.422Z,1016.32
2017-07-06T03:53:06.375Z,1016.3
2017-07-06T03:53:47.271Z,1016.31
2017-07-06T03:54:28.154Z,1016.31
2017-07-06T03:55:09.058Z,1016.31
2017-07-06T03:55:49.928Z,1016.31
2017-07-06T03:56:30.822Z,1016.35
2017-07-06T03:57:11.714Z,1016.37
2017-07-06T03:57:52.605Z,1016.33
2017-07-06T03:58:33.490Z,1016.32
2017-07-06T03:59:14.383Z,1016.3
2017-07-06T03:59:55.266Z,1016.3
2017-07-06T04:00:36.153Z,1016.3
2017-07-06T04:01:17.044Z,1016.31
2017-07-06T04:01:57.941Z,1016.28
2017-07-06T04:02:38.883Z,1016.26
2017-07-06T04:03:19.781Z,1016.24
2017-07-06T04:04:00.675Z,1016.29
2017-07-06T04:04:41.675Z,1016.22
2017-07-06T04:05:22.542Z,1016.27
2017-07-06T04:06:03.429Z,1016.23
2017-07-06T04:06:44.330Z,1016.24
2017-07-06T04:07:25.220Z,1016.27
2017-07-06T04:08:06.109Z,1016.34
2017-07-06T04:08:47.014Z,1016.33
2017-07-06T04:09:27.902Z,1016.33
2017-07-06T04:10:08.782Z,1016.35
2017-07-06T04:10:49.680Z,1016.36
2017-07-06T04:11:30.565Z,1016.33
2017-07-06T04:12:11.452Z,1016.31
2017-07-06T04:12:52.333Z,1016.36
2017-07-06T04:13:33.214Z,1016.35
2017-07-06T04:14:14.102Z,1016.36
2017-07-06T04:14:54.986Z,1016.35
2017-07-06T04:15:35.876Z,1016.37
2017-07-06T04:16:16.766Z,1016.37
2017-07-06T04:16:57.659Z,1016.35
2017-07-06T04:17:38.552Z,1016.34
2017-07-06T04:18:19.429Z,1016.35
2017-07-06T04:19:00.335Z,1016.37
2017-07-06T04:19:41.209Z,1016.33
2017-07-06T04:20:22.098Z,1016.36
2017-07-06T04:21:02.992Z,1016.36
2017-07-06T04:21:43.869Z,1016.36
2017-07-06T04:22:24.753Z,1016.39
2017-07-06T04:23:05.641Z,1016.38
2017-07-06T04:23:46.531Z,1016.36
2017-07-06T04:24:27.429Z,1016.36
2017-07-06T04:25:08.300Z,1016.35
2017-07-06T04:25:49.194Z,1016.35
2017-07-06T04:26:30.086Z,1016.38
2017-07-06T04:27:10.962Z,1016.39
2017-07-06T04:27:51.867Z,1016.37
2017-07-06T04:28:32.759Z,1016.43
2017-07-06T04:29:13.637Z,1016.41
2017-07-06T04:29:54.523Z,1016.45
2017-07-06T04:30:35.409Z,1016.43
2017-07-06T04:31:16.304Z,1016.45
2017-07-06T04:31:57.188Z,1016.47
2017-07-06T04:32:38.079Z,1016.48
2017-07-06T04:33:18.966Z,1016.49
2017-07-06T04:33:59.847Z,1016.54
2017-07-06T04:34:40.719Z,1016.52
2017-07-06T04:35:21.619Z,1016.52
2017-07-06T04:36:02.505Z,1016.57
2017-07-06T04:36:43.386Z,1016.53
2017-07-06T04:37:24.265Z,1016.58
2017-07-06T04:38:05.167Z,1016.57
2017-07-06T04:38:46.064Z,1016.56
2017-07-06T04:39:26.952Z,1016.55
2017-07-06T04:40:07.848Z,1016.56
2017-07-06T04:40:48.734Z,1016.56
2017-07-06T04:41:29.611Z,1016.56
2017-07-06T04:42:10.506Z,1016.58
2017-07-06T04:42:51.414Z,1016.59
2017-07-06T04:43:32.303Z,1016.61
2017-07-06T04:44:13.200Z,1016.58
2017-07-06T04:44:54.090Z,1016.61
2017-07-06T04:45:34.980Z,1016.6
2017-07-06T04:46:15.882Z,1016.65
2017-07-06T04:46:56.761Z,1016.64
2017-07-06T04:47:37.653Z,1016.65
2017-07-06T04:48:18.561Z,1016.65
2017-07-06T04:48:59.466Z,1016.66
2017-07-06T04:49:40.365Z,1016.64
2017-07-06T04:50:21.251Z,1016.65
2017-07-06T04:51:02.134Z,1016.67
2017-07-06T04:51:43.033Z,1016.66
2017-07-06T04:52:23.926Z,1016.69
2017-07-06T04:53:04.815Z,1016.68
2017-07-06T04:53:45.701Z,1016.68
2017-07-06T04:54:26.597Z,1016.71
2017-07-06T04:55:07.489Z,1016.67
2017-07-06T04:55:49.224Z,1016.68
2017-07-06T04:56:30.113Z,1016.67
2017-07-06T04:57:10.995Z,1016.67
2017-07-06T04:57:51.902Z,1016.64
2017-07-06T04:58:32.790Z,1016.64
2017-07-06T04:59:13.720Z,1016.65
2017-07-06T04:59:54.615Z,1016.65
2017-07-06T05:00:35.509Z,1016.65
2017-07-06T05:01:16.409Z,1016.65
2017-07-06T05:01:57.318Z,1016.68
2017-07-06T05:02:38.213Z,1016.65
2017-07-06T05:03:19.091Z,1016.67
2017-07-06T05:03:59.988Z,1016.7
2017-07-06T05:04:40.869Z,1016.68
2017-07-06T05:05:21.761Z,1016.71
2017-07-06T05:06:02.643Z,1016.63
2017-07-06T05:06:43.538Z,1016.66
2017-07-06T05:07:24.424Z,1016.66
2017-07-06T05:08:05.307Z,1016.64
2017-07-06T05:08:46.211Z,1016.65
2017-07-06T05:09:27.094Z,1016.67
2017-07-06T05:10:07.981Z,1016.69
2017-07-06T05:10:48.861Z,1016.64
2017-07-06T05:11:29.755Z,1016.66
2017-07-06T05:12:10.645Z,1016.62
2017-07-06T05:12:51.529Z,1016.64
2017-07-06T05:13:32.423Z,1016.61
2017-07-06T05:14:13.321Z,1016.62
2017-07-06T05:14:54.206Z,1016.62
2017-07-06T05:15:35.102Z,1016.61
2017-07-06T05:16:15.995Z,1016.61
2017-07-06T05:16:56.874Z,1016.61
2017-07-06T05:17:37.774Z,1016.62
2017-07-06T05:18:18.671Z,1016.62
2017-07-06T05:18:59.612Z,1016.61
2017-07-06T05:19:40.631Z,1016.65
2017-07-06T05:20:21.525Z,1016.67
2017-07-06T05:21:02.468Z,1016.72
2017-07-06T05:22:35.700Z,1016.72
2017-07-06T05:23:16.584Z,1016.69
2017-07-06T05:23:57.484Z,1016.67
2017-07-06T05:24:38.380Z,1016.71
2017-07-06T05:25:19.288Z,1016.67
2017-07-06T05:26:00.218Z,1016.67
2017-07-06T05:26:41.116Z,1016.65
2017-07-06T05:27:22.010Z,1016.64
2017-07-06T05:28:02.904Z,1016.66
2017-07-06T05:28:43.788Z,1016.68
2017-07-06T05:29:24.668Z,1016.71
2017-07-06T05:30:05.559Z,1016.72
2017-07-06T05:30:46.453Z,1016.71
2017-07-06T05:31:27.341Z,1016.74
2017-07-06T05:32:08.235Z,1016.74
2017-07-06T05:32:49.129Z,1016.69
2017-07-06T05:33:30.019Z,1016.72
2017-07-06T05:34:10.898Z,1016.7
2017-07-06T05:34:51.786Z,1016.7
2017-07-06T05:35:32.676Z,1016.68
2017-07-06T05:36:13.572Z,1016.7
2017-07-06T05:36:54.452Z,1016.66
2017-07-06T05:37:35.334Z,1016.7
2017-07-06T05:38:16.229Z,1016.68
2017-07-06T05:38:57.116Z,1016.65
2017-07-06T05:40:35.502Z,1016.64
2017-07-06T05:41:16.395Z,1016.66
2017-07-06T05:41:57.298Z,1016.66
2017-07-06T05:43:31.515Z,1016.65
2017-07-06T05:44:12.407Z,1016.68
2017-07-06T05:44:53.302Z,1016.66
2017-07-06T05:45:34.189Z,1016.62
2017-07-06T05:46:15.074Z,1016.66
2017-07-06T05:46:55.958Z,1016.68
2017-07-06T05:47:36.861Z,1016.69
2017-07-06T05:48:17.758Z,1016.7
2017-07-06T05:48:58.649Z,1016.65
2017-07-06T05:49:39.537Z,1016.69
2017-07-06T05:50:20.426Z,1016.65
2017-07-06T05:51:01.305Z,1016.7
2017-07-06T05:51:42.202Z,1016.66
2017-07-06T05:52:23.081Z,1016.67
2017-07-06T05:53:03.968Z,1016.67
2017-07-06T05:53:44.859Z,1016.69
2017-07-06T05:54:25.757Z,1016.71
2017-07-06T05:55:06.633Z,1016.71
2017-07-06T05:55:47.504Z,1016.69
2017-07-06T05:56:28.399Z,1016.72
2017-07-06T05:57:09.285Z,1016.73
2017-07-06T05:57:50.178Z,1016.75
2017-07-06T05:58:31.043Z,1016.73
2017-07-06T05:59:11.939Z,1016.71
2017-07-06T05:59:52.827Z,1016.75
2017-07-06T06:00:33.721Z,1016.75
2017-07-06T06:01:14.615Z,1016.74
2017-07-06T06:01:55.493Z,1016.74
2017-07-06T06:02:36.386Z,1016.79
2017-07-06T06:03:17.273Z,1016.79
2017-07-06T06:03:58.177Z,1016.82
2017-07-06T06:04:39.073Z,1016.8
2017-07-06T06:05:19.972Z,1016.8
2017-07-06T06:06:00.876Z,1016.83
2017-07-06T06:06:41.772Z,1016.82
2017-07-06T06:07:22.671Z,1016.83
2017-07-06T06:08:03.569Z,1016.85
2017-07-06T06:08:44.460Z,1016.87
2017-07-06T06:09:25.359Z,1016.84
2017-07-06T06:10:06.243Z,1016.87
2017-07-06T06:10:47.144Z,1016.88
2017-07-06T06:11:28.050Z,1016.89
2017-07-06T06:12:08.942Z,1016.91
2017-07-06T06:12:49.843Z,1016.9
2017-07-06T06:13:30.733Z,1016.89
2017-07-06T06:14:11.629Z,1016.91
2017-07-06T06:14:52.532Z,1016.9
2017-07-06T06:15:33.414Z,1016.94
2017-07-06T06:16:14.324Z,1016.92
2017-07-06T06:16:55.210Z,1016.95
2017-07-06T06:17:36.114Z,1016.95
2017-07-06T06:18:17.019Z,1016.97
2017-07-06T06:18:57.902Z,1016.94
2017-07-06T06:19:38.795Z,1016.93
2017-07-06T06:20:19.684Z,1016.9
2017-07-06T06:21:00.579Z,1016.94
2017-07-06T06:21:41.449Z,1016.92
2017-07-06T06:22:22.349Z,1016.9
2017-07-06T06:23:03.230Z,1016.93
2017-07-06T06:23:44.123Z,1016.96
2017-07-06T06:24:25.038Z,1016.94
2017-07-06T06:25:05.929Z,1016.91
2017-07-06T06:25:46.814Z,1016.91
2017-07-06T06:26:27.715Z,1016.89
2017-07-06T06:27:08.609Z,1016.91
2017-07-06T06:27:49.499Z,1016.93
2017-07-06T06:28:30.388Z,1016.9
2017-07-06T06:29:11.281Z,1016.92
2017-07-06T06:29:52.176Z,1016.89
2017-07-06T06:30:33.065Z,1016.88
2017-07-06T06:31:13.957Z,1016.85
2017-07-06T06:31:54.864Z,1016.82
2017-07-06T06:32:35.759Z,1016.88
2017-07-06T06:33:16.653Z,1016.86
2017-07-06T06:33:57.574Z,1016.85
2017-07-06T06:34:38.465Z,1016.85
2017-07-06T06:35:19.365Z,1016.87
2017-07-06T06:36:00.251Z,1016.83
2017-07-06T06:36:41.150Z,1016.86
2017-07-06T06:37:22.049Z,1016.87
2017-07-06T06:38:02.947Z,1016.85
2017-07-06T06:38:43.833Z,1016.87
2017-07-06T06:39:24.715Z,1016.9
2017-07-06T06:40:05.601Z,1016.9
2017-07-06T06:40:46.497Z,1016.87
2017-07-06T06:41:27.398Z,1016.9
2017-07-06T06:42:08.284Z,1016.91
2017-07-06T06:42:49.185Z,1016.9
2017-07-06T06:43:30.083Z,1016.91
2017-07-06T06:44:10.982Z,1016.91
2017-07-06T06:44:51.881Z,1016.9
2017-07-06T06:45:32.777Z,1016.93
2017-07-06T06:46:13.661Z,1016.93
2017-07-06T06:46:54.556Z,1016.91
2017-07-06T06:47:35.441Z,1016.89
2017-07-06T06:48:16.331Z,1016.92
2017-07-06T06:48:57.239Z,1016.92
2017-07-06T06:49:38.135Z,1016.92
2017-07-06T06:50:19.033Z,1016.92
2017-07-06T06:51:00.077Z,1016.93
2017-07-06T06:51:40.858Z,1016.89
2017-07-06T06:52:21.787Z,1016.91
2017-07-06T06:53:02.644Z,1016.95
2017-07-06T06:53:43.525Z,1016.91
2017-07-06T06:54:24.410Z,1016.97
2017-07-06T06:55:05.312Z,1016.99
2017-07-06T06:55:46.203Z,1016.97
2017-07-06T06:56:27.104Z,1017
2017-07-06T06:57:07.992Z,1017
2017-07-06T06:57:48.905Z,1017
2017-07-06T06:58:29.802Z,1016.98
2017-07-06T06:59:10.692Z,1016.99
2017-07-06T06:59:51.580Z,1017.01
2017-07-06T07:00:32.468Z,1017.04
2017-07-06T07:01:13.384Z,1017.01
2017-07-06T07:01:54.278Z,1017.07
2017-07-06T07:02:35.188Z,1017.06
2017-07-06T07:03:16.084Z,1017.06
2017-07-06T07:03:57.005Z,1017.09
2017-07-06T07:04:37.891Z,1017.08
2017-07-06T07:05:18.782Z,1017.03
2017-07-06T07:05:59.680Z,1017.05
2017-07-06T07:06:40.585Z,1017.1
2017-07-06T07:07:21.484Z,1017.08
2017-07-06T07:08:02.384Z,1017.07
2017-07-06T07:08:43.284Z,1017.05
2017-07-06T07:09:24.180Z,1017.08
2017-07-06T07:10:05.143Z,1017.1
2017-07-06T07:10:46.031Z,1017.09
2017-07-06T07:11:26.925Z,1017.09
2017-07-06T07:12:07.824Z,1017.09
2017-07-06T07:12:48.741Z,1017.1
2017-07-06T07:13:29.644Z,1017.15
2017-07-06T07:14:10.537Z,1017.12
2017-07-06T07:14:51.432Z,1017.09
2017-07-06T07:15:32.332Z,1017.12
2017-07-06T07:16:13.237Z,1017.11
2017-07-06T07:16:54.145Z,1017.09
2017-07-06T07:17:35.056Z,1017.08
2017-07-06T07:18:15.996Z,1017.1
2017-07-06T07:18:56.892Z,1017.1
2017-07-06T07:19:37.801Z,1017.14
2017-07-06T07:20:18.714Z,1017.12
2017-07-06T07:20:59.620Z,1017.11
2017-07-06T07:21:40.530Z,1017.15
2017-07-06T07:22:21.438Z,1017.15
2017-07-06T07:23:02.333Z,1017.12
2017-07-06T07:23:43.260Z,1017.16
2017-07-06T07:24:24.145Z,1017.16
2017-07-06T07:25:05.042Z,1017.16
2017-07-06T07:25:45.935Z,1017.16
2017-07-06T07:26:26.847Z,1017.15
2017-07-06T07:27:07.771Z,1017.13
2017-07-06T07:27:48.666Z,1017.16
2017-07-06T07:28:29.573Z,1017.14
2017-07-06T07:29:10.468Z,1017.14
2017-07-06T07:29:51.384Z,1017.14
2017-07-06T07:30:32.277Z,1017.15
2017-07-06T07:31:13.196Z,1017.11
2017-07-06T07:31:54.102Z,1017.14
2017-07-06T07:32:35.033Z,1017.09
2017-07-06T07:33:15.937Z,1017.12
2017-07-06T07:33:56.850Z,1017.1
2017-07-06T07:34:37.749Z,1017.12
2017-07-06T07:35:18.659Z,1017.13
2017-07-06T07:35:59.562Z,1017.12
2017-07-06T07:36:40.456Z,1017.16
2017-07-06T07:39:09.675Z,1017.19
2017-07-06T07:39:50.532Z,1017.17
2017-07-06T07:40:31.428Z,1017.12
2017-07-06T07:41:12.333Z,1017.13
2017-07-06T07:41:53.243Z,1017.15
2017-07-06T07:42:34.147Z,1017.16
2017-07-06T07:43:15.057Z,1017.14
2017-07-06T07:43:55.966Z,1017.14
2017-07-06T07:44:36.856Z,1017.19
2017-07-06T07:45:17.758Z,1017.18
2017-07-06T07:45:58.663Z,1017.19
2017-07-06T07:46:39.570Z,1017.19
2017-07-06T07:47:20.477Z,1017.16
2017-07-06T07:48:01.368Z,1017.17
2017-07-06T07:48:42.274Z,1017.17
2017-07-06T07:49:23.256Z,1017.21
2017-07-06T07:50:04.170Z,1017.21
2017-07-06T07:50:45.070Z,1017.23
2017-07-06T07:51:25.990Z,1017.22
2017-07-06T07:52:06.922Z,1017.23
2017-07-06T07:52:47.822Z,1017.24
2017-07-06T07:53:28.723Z,1017.26
2017-07-06T07:54:09.627Z,1017.28
2017-07-06T07:54:50.513Z,1017.27
2017-07-06T07:55:31.398Z,1017.24
2017-07-06T07:56:12.299Z,1017.25
2017-07-06T07:56:53.203Z,1017.29
2017-07-06T07:57:34.111Z,1017.26
2017-07-06T07:58:15.015Z,1017.29
2017-07-06T07:58:55.892Z,1017.31
2017-07-06T07:59:36.802Z,1017.29
2017-07-06T08:00:17.698Z,1017.29
2017-07-06T08:00:58.618Z,1017.3
2017-07-06T08:01:39.491Z,1017.31
2017-07-06T08:02:20.364Z,1017.33
2017-07-06T08:03:01.280Z,1017.36
2017-07-06T08:03:42.174Z,1017.34
2017-07-06T08:04:23.078Z,1017.36
2017-07-06T08:05:03.972Z,1017.34
2017-07-06T08:05:44.869Z,1017.35
2017-07-06T08:06:25.772Z,1017.35
2017-07-06T08:07:06.664Z,1017.36
2017-07-06T08:07:47.569Z,1017.36
2017-07-06T08:08:28.472Z,1017.38
2017-07-06T08:09:09.360Z,1017.35
2017-07-06T08:09:50.265Z,1017.35
2017-07-06T08:10:31.163Z,1017.35
2017-07-06T08:11:12.064Z,1017.34
2017-07-06T08:11:52.954Z,1017.34
2017-07-06T08:12:33.854Z,1017.38
2017-07-06T08:13:14.757Z,1017.34
2017-07-06T08:13:55.657Z,1017.3
2017-07-06T08:14:36.557Z,1017.26
2017-07-06T08:15:17.471Z,1017.29
2017-07-06T08:15:58.387Z,1017.25
2017-07-06T08:16:39.290Z,1017.21
2017-07-06T08:17:20.194Z,1017.21
2017-07-06T08:18:01.086Z,1017.21
2017-07-06T08:18:41.979Z,1017.19
2017-07-06T08:19:22.866Z,1017.23
2017-07-06T08:20:03.756Z,1017.22
2017-07-06T08:20:44.656Z,1017.24
2017-07-06T08:21:25.548Z,1017.24
2017-07-06T08:22:06.446Z,1017.22
2017-07-06T08:22:47.337Z,1017.23
2017-07-06T08:23:28.239Z,1017.25
2017-07-06T08:24:09.140Z,1017.28
2017-07-06T08:24:50.040Z,1017.3
2017-07-06T08:25:30.944Z,1017.31
2017-07-06T08:26:11.839Z,1017.3